createdAt,value
2023-01-10T00:01:07.047Z,4.90
2023-01-10T00:03:33.819Z,6.00
2023-01-10T00:06:00.635Z,5.17
2023-01-10T00:08:28.262Z,6.10
2023-01-10T00:10:58.313Z,5.87
2023-01-10T00:13:25.427Z,6.13
2023-01-10T00:15:54.198Z,6.40
2023-01-10T00:18:21.461Z,6.80
2023-01-10T00:20:49.591Z,7.40
2023-01-10T00:23:17.272Z,6.10
2023-01-10T00:25:44.033Z,5.97
2023-01-10T00:28:20.340Z,7.40
2023-01-10T00:31:04.328Z,6.17
2023-01-10T00:33:31.847Z,6.67
2023-01-10T00:36:00.235Z,7.37
2023-01-10T00:38:27.336Z,6.97
2023-01-10T00:40:54.230Z,6.67
2023-01-10T00:43:39.724Z,6.03
2023-01-10T00:46:08.904Z,6.73
2023-01-10T00:48:35.837Z,6.47
2023-01-10T00:51:03.244Z,6.50
2023-01-10T00:53:29.889Z,6.63
2023-01-10T00:55:57.128Z,5.90
2023-01-10T00:58:23.935Z,6.23
2023-01-10T01:00:50.661Z,5.87
2023-01-10T01:03:18.692Z,6.73
2023-01-10T01:05:46.522Z,6.13
2023-01-10T01:08:16.660Z,6.33
2023-01-10T01:10:43.782Z,6.77
2023-01-10T01:13:13.814Z,6.93
2023-01-10T01:15:41.076Z,5.93
2023-01-10T01:18:08.622Z,6.67
2023-01-10T01:20:35.338Z,7.00
2023-01-10T01:23:02.251Z,6.10
2023-01-10T01:25:28.900Z,7.17
2023-01-10T01:27:55.688Z,7.27
2023-01-10T01:30:22.716Z,7.50
2023-01-10T01:32:49.533Z,9.27
2023-01-10T01:35:16.891Z,7.67
2023-01-10T01:37:46.850Z,6.57
2023-01-10T01:40:22.655Z,7.77
2023-01-10T01:42:55.459Z,8.10
2023-01-10T01:45:31.535Z,7.03
2023-01-10T01:48:18.857Z,6.37
2023-01-10T01:50:52.155Z,6.93
2023-01-10T01:53:33.664Z,7.33
2023-01-10T01:56:06.758Z,6.80
2023-01-10T01:58:43.013Z,6.83
2023-01-10T02:01:11.619Z,7.33
2023-01-10T02:03:40.034Z,6.80
2023-01-10T02:06:07.636Z,7.53
2023-01-10T02:08:35.205Z,7.33
2023-01-10T02:11:13.901Z,6.37
2023-01-10T02:13:42.214Z,7.53
2023-01-10T02:16:09.627Z,6.37
2023-01-10T02:18:38.328Z,6.23
2023-01-10T02:21:10.935Z,7.17
2023-01-10T02:24:08.516Z,5.30
2023-01-10T02:26:50.180Z,6.43
2023-01-10T02:29:44.656Z,6.87
2023-01-10T02:32:15.830Z,6.10
2023-01-10T02:35:06.503Z,5.57
2023-01-10T02:37:50.656Z,5.77
2023-01-10T02:40:45.492Z,5.67
2023-01-10T02:43:15.968Z,5.60
2023-01-10T02:45:48.751Z,6.53
2023-01-10T02:48:17.975Z,4.83
2023-01-10T02:50:44.630Z,6.10
2023-01-10T02:53:24.063Z,5.80
2023-01-10T02:56:12.851Z,4.87
2023-01-10T02:59:04.798Z,5.07
2023-01-10T03:01:54.424Z,6.27
2023-01-10T03:04:37.486Z,4.63
2023-01-10T03:07:18.475Z,5.03
2023-01-10T03:10:06.480Z,4.77
2023-01-10T03:12:39.477Z,5.07
2023-01-10T03:15:08.432Z,5.90
2023-01-10T03:17:37.909Z,5.33
2023-01-10T03:20:07.313Z,5.20
2023-01-10T03:22:38.538Z,5.67
2023-01-10T03:25:09.475Z,6.07
2023-01-10T03:27:44.157Z,5.57
2023-01-10T03:30:17.159Z,5.70
2023-01-10T03:32:44.265Z,5.13
2023-01-10T03:35:12.686Z,6.17
2023-01-10T03:38:01.460Z,5.43
2023-01-10T03:40:42.928Z,5.37
2023-01-10T03:43:37.566Z,5.33
2023-01-10T03:46:10.674Z,5.17
2023-01-10T03:48:42.354Z,4.73
2023-01-10T03:54:51.071Z,4.53
2023-01-10T03:57:23.961Z,4.37
2023-01-10T03:59:53.808Z,4.20
2023-01-10T04:02:20.993Z,4.47
2023-01-10T04:04:47.728Z,4.50
2023-01-10T04:07:14.414Z,4.90
2023-01-10T04:09:41.070Z,3.83
2023-01-10T04:12:07.769Z,4.60
2023-01-10T04:14:34.484Z,3.70
2023-01-10T04:17:01.203Z,3.60
2023-01-10T04:19:28.137Z,3.70
2023-01-10T04:21:54.791Z,4.33
2023-01-10T04:24:21.545Z,4.30
2023-01-10T04:26:48.506Z,5.00
2023-01-10T04:29:15.226Z,4.20
2023-01-10T04:31:41.963Z,4.20
2023-01-10T04:34:09.461Z,3.90
2023-01-10T04:36:36.848Z,3.83
2023-01-10T04:39:04.618Z,4.23
2023-01-10T04:41:31.471Z,4.63
2023-01-10T04:43:59.162Z,3.57
2023-01-10T04:46:25.947Z,4.13
2023-01-10T04:48:52.679Z,4.73
2023-01-10T04:51:19.356Z,4.13
2023-01-10T04:53:46.083Z,4.17
2023-01-10T04:56:19.937Z,3.80
2023-01-10T04:58:47.617Z,3.93
2023-01-10T05:01:17.426Z,4.00
2023-01-10T05:03:44.282Z,4.80
2023-01-10T05:06:10.939Z,5.33
2023-01-10T05:08:37.686Z,3.97
2023-01-10T05:11:04.551Z,4.23
2023-01-10T05:13:31.250Z,4.47
2023-01-10T05:15:58.677Z,4.10
2023-01-10T05:18:26.894Z,4.33
2023-01-10T05:20:59.177Z,4.00
2023-01-10T05:23:25.858Z,5.00
2023-01-10T05:25:52.556Z,5.07
2023-01-10T05:28:19.189Z,5.33
2023-01-10T05:30:45.945Z,4.27
2023-01-10T05:33:12.608Z,5.60
2023-01-10T05:35:39.319Z,5.30
2023-01-10T05:38:05.977Z,5.70
2023-01-10T05:40:32.660Z,5.57
2023-01-10T05:42:59.282Z,5.13
2023-01-10T05:45:25.960Z,6.07
2023-01-10T05:47:52.596Z,5.73
2023-01-10T05:50:19.204Z,5.43
2023-01-10T05:52:45.808Z,5.33
2023-01-10T05:55:12.468Z,6.00
2023-01-10T05:57:39.213Z,6.10
2023-01-10T06:00:06.669Z,5.77
2023-01-10T06:02:33.557Z,5.50
2023-01-10T06:05:00.238Z,6.93
2023-01-10T06:07:26.879Z,6.20
2023-01-10T06:09:53.576Z,5.60
2023-01-10T06:12:20.219Z,5.33
2023-01-10T06:14:46.860Z,5.60
2023-01-10T06:17:13.803Z,5.33
2023-01-10T06:19:40.493Z,5.30
2023-01-10T06:22:07.338Z,4.57
2023-01-10T06:24:34.049Z,5.53
2023-01-10T06:27:00.755Z,5.50
2023-01-10T06:29:27.384Z,6.33
2023-01-10T06:31:54.152Z,4.57
2023-01-10T06:34:20.825Z,5.20
2023-01-10T06:36:47.556Z,5.40
2023-01-10T06:39:14.209Z,7.10
2023-01-10T06:41:40.851Z,4.57
2023-01-10T06:44:07.818Z,5.17
2023-01-10T06:46:34.648Z,5.90
2023-01-10T06:49:01.425Z,3.97
2023-01-10T06:51:28.071Z,6.13
2023-01-10T06:53:54.753Z,4.90
2023-01-10T06:56:21.386Z,6.33
2023-01-10T06:58:49.848Z,4.47
2023-01-10T07:01:19.464Z,4.50
2023-01-10T07:03:46.532Z,4.47
2023-01-10T07:06:13.378Z,5.00
2023-01-10T07:08:42.119Z,5.27
2023-01-10T07:11:11.586Z,5.03
2023-01-10T07:13:39.028Z,4.20
2023-01-10T07:16:11.831Z,5.87
2023-01-10T07:18:40.529Z,4.47
2023-01-10T07:21:07.551Z,4.20
2023-01-10T07:23:34.473Z,4.87
2023-01-10T07:26:06.062Z,4.50
2023-01-10T07:28:34.565Z,4.87
2023-01-10T07:31:03.152Z,5.60
2023-01-10T07:33:30.295Z,4.40
2023-01-10T07:35:57.722Z,4.33
2023-01-10T07:38:24.371Z,4.90
2023-01-10T07:40:51.123Z,5.43
2023-01-10T07:43:17.833Z,5.43
2023-01-10T07:45:45.017Z,5.10
2023-01-10T07:48:11.712Z,5.43
2023-01-10T07:50:38.735Z,4.97
2023-01-10T07:53:08.177Z,4.60
2023-01-10T07:55:38.869Z,5.77
2023-01-10T07:58:07.971Z,5.23
2023-01-10T08:00:35.665Z,4.37
2023-01-10T08:03:02.574Z,5.77
2023-01-10T08:05:29.480Z,5.10
2023-01-10T08:07:59.893Z,5.90
2023-01-10T08:10:27.187Z,6.17
2023-01-10T08:12:53.855Z,5.03
2023-01-10T08:15:20.683Z,4.63
2023-01-10T08:17:47.391Z,5.23
2023-01-10T08:20:14.209Z,6.00
2023-01-10T08:22:40.914Z,5.43
2023-01-10T08:25:08.110Z,4.87
2023-01-10T08:27:34.898Z,5.20
2023-01-10T08:30:01.504Z,6.03
2023-01-10T08:32:28.256Z,6.00
2023-01-10T08:34:54.979Z,5.83
2023-01-10T08:37:21.606Z,6.27
2023-01-10T08:39:48.217Z,4.70
2023-01-10T08:42:16.906Z,6.10
2023-01-10T08:44:43.607Z,5.27
2023-01-10T08:47:10.418Z,6.13
2023-01-10T08:49:37.095Z,6.07
2023-01-10T08:52:03.788Z,5.57
2023-01-10T08:54:30.488Z,5.73
2023-01-10T08:56:57.156Z,6.13
2023-01-10T08:59:23.770Z,6.63
2023-01-10T09:01:50.753Z,6.90
2023-01-10T09:04:17.509Z,6.40
2023-01-10T09:06:44.255Z,7.07
2023-01-10T09:09:10.927Z,7.50
2023-01-10T09:11:37.575Z,7.13
2023-01-10T09:14:04.275Z,7.20
2023-01-10T09:16:30.920Z,7.50
2023-01-10T09:18:57.705Z,4.83
2023-01-10T09:21:25.076Z,6.47
2023-01-10T09:23:52.225Z,5.33
2023-01-10T09:26:18.878Z,5.43
2023-01-10T09:28:48.885Z,6.10
2023-01-10T09:31:15.777Z,4.93
2023-01-10T09:33:47.143Z,5.73
2023-01-10T09:36:15.468Z,5.03
2023-01-10T09:38:42.373Z,5.67
2023-01-10T09:41:30.868Z,5.90
2023-01-10T09:44:16.099Z,5.97
2023-01-10T09:46:48.205Z,5.00
2023-01-10T09:49:26.749Z,5.47
2023-01-10T09:51:59.002Z,4.77
2023-01-10T09:54:29.890Z,4.57
2023-01-10T09:56:59.504Z,5.33
2023-01-10T09:59:37.495Z,6.50
2023-01-10T10:02:22.069Z,5.63
2023-01-10T10:05:09.431Z,5.83
2023-01-10T10:07:36.386Z,5.73
2023-01-10T10:10:11.858Z,6.67
2023-01-10T10:15:52.796Z,6.40
2023-01-10T10:18:22.242Z,6.53
2023-01-10T10:20:57.544Z,7.07
2023-01-10T10:23:50.698Z,6.57
2023-01-10T10:26:46.905Z,6.83
2023-01-10T10:29:29.749Z,7.00
2023-01-10T10:32:35.703Z,7.10
2023-01-10T10:35:24.481Z,7.43
2023-01-10T10:37:53.551Z,7.00
2023-01-10T10:40:23.121Z,7.40
2023-01-10T10:46:09.854Z,7.57
2023-01-10T10:49:00.372Z,6.87
2023-01-10T10:51:52.360Z,6.30
2023-01-10T10:54:20.184Z,7.93
2023-01-10T10:56:47.946Z,7.80
2023-01-10T10:59:19.599Z,8.53
2023-01-10T11:01:49.581Z,7.27
2023-01-10T11:04:20.944Z,7.63
2023-01-10T11:06:54.251Z,7.57
2023-01-10T11:09:32.410Z,7.63
2023-01-10T11:11:59.417Z,7.47
2023-01-10T11:14:44.461Z,7.83
2023-01-10T11:17:27.609Z,7.70
2023-01-10T11:20:02.260Z,7.97
2023-01-10T11:22:47.028Z,8.50
2023-01-10T11:25:19.510Z,7.57
2023-01-10T11:27:58.107Z,8.30
2023-01-10T11:30:30.983Z,8.90
2023-01-10T11:33:01.552Z,8.97
2023-01-10T11:35:39.119Z,8.47
2023-01-10T11:38:13.469Z,7.93
2023-01-10T11:40:59.201Z,9.53
2023-01-10T11:43:40.639Z,8.73
2023-01-10T11:46:17.687Z,9.40
2023-01-10T11:49:05.436Z,7.80
2023-01-10T11:51:40.198Z,8.07
2023-01-10T11:57:01.162Z,7.37
2023-01-10T11:59:28.797Z,8.50
2023-01-10T12:02:04.736Z,7.70
2023-01-10T12:04:34.319Z,7.23
2023-01-10T12:07:09.361Z,8.13
2023-01-10T12:09:39.500Z,8.90
2023-01-10T12:12:17.552Z,7.03
2023-01-10T12:14:45.783Z,6.03
2023-01-10T12:17:18.926Z,5.87
2023-01-10T12:19:45.819Z,6.27
2023-01-10T12:22:15.831Z,5.00
2023-01-10T12:24:45.378Z,6.50
2023-01-10T12:27:14.200Z,5.53
2023-01-10T12:29:53.282Z,6.80
2023-01-10T12:35:03.275Z,5.07
2023-01-10T12:37:42.408Z,4.93
2023-01-10T12:40:36.036Z,5.53
2023-01-10T12:43:33.650Z,5.60
2023-01-10T12:46:43.505Z,4.93
2023-01-10T12:52:12.656Z,4.73
2023-01-10T12:54:39.917Z,4.67
2023-01-10T12:57:21.656Z,5.20
2023-01-10T12:59:49.429Z,6.27
2023-01-10T13:02:24.120Z,4.23
2023-01-10T13:04:56.927Z,5.20
2023-01-10T13:07:28.652Z,5.53
2023-01-10T13:09:56.242Z,7.17
2023-01-10T13:12:35.425Z,6.37
2023-01-10T13:17:47.652Z,5.10
2023-01-10T13:20:24.210Z,4.47
2023-01-10T13:23:02.920Z,5.27
2023-01-10T13:25:34.928Z,3.83
2023-01-10T13:30:58.834Z,4.90
2023-01-10T13:33:29.381Z,4.73
2023-01-10T13:38:57.697Z,6.57
2023-01-10T13:42:03.463Z,4.40
2023-01-10T13:44:30.699Z,5.23
2023-01-10T13:46:57.740Z,5.57
2023-01-10T13:49:26.553Z,5.03
2023-01-10T13:52:12.309Z,4.93
2023-01-10T13:54:55.619Z,6.00
2023-01-10T13:57:44.354Z,3.93
2023-01-10T14:00:39.989Z,5.23
2023-01-10T14:03:07.095Z,4.70
2023-01-10T14:05:37.210Z,6.20
2023-01-10T14:08:15.898Z,4.20
2023-01-10T14:10:42.980Z,5.13
2023-01-10T14:13:17.137Z,4.70
2023-01-10T14:15:46.029Z,5.37
2023-01-10T14:18:24.371Z,4.03
2023-01-10T14:21:02.432Z,4.70
2023-01-10T14:23:32.251Z,4.80
2023-01-10T14:25:59.418Z,5.53
2023-01-10T14:28:28.182Z,4.13
2023-01-10T14:31:10.071Z,4.50
2023-01-10T14:33:37.938Z,4.60
2023-01-10T14:36:16.048Z,4.47
2023-01-10T14:38:44.965Z,6.00
2023-01-10T14:41:24.890Z,3.87
2023-01-10T14:43:51.916Z,5.00
2023-01-10T14:46:37.911Z,4.23
2023-01-10T14:49:18.968Z,4.53
2023-01-10T14:51:50.206Z,4.07
2023-01-10T14:54:18.341Z,4.50
2023-01-10T14:56:46.594Z,4.80
2023-01-10T14:59:23.919Z,5.60
2023-01-10T15:01:52.084Z,4.53
2023-01-10T15:04:20.572Z,3.53
2023-01-10T15:07:02.921Z,4.77
2023-01-10T15:09:31.419Z,4.90
2023-01-10T15:12:00.696Z,3.87
2023-01-10T15:14:28.770Z,3.80
2023-01-10T15:17:00.062Z,3.37
2023-01-10T15:19:33.348Z,3.90
2023-01-10T15:22:04.738Z,3.53
2023-01-10T15:24:36.145Z,4.47
2023-01-10T15:27:11.749Z,5.47
2023-01-10T15:29:44.490Z,4.13
2023-01-10T15:32:13.146Z,4.73
2023-01-10T15:34:42.176Z,4.13
2023-01-10T15:37:16.637Z,4.10
2023-01-10T15:39:47.418Z,3.90
2023-01-10T15:42:14.786Z,3.93
2023-01-10T15:44:45.892Z,3.70
2023-01-10T15:47:31.806Z,3.73
2023-01-10T15:49:58.981Z,5.00
2023-01-10T15:52:26.137Z,3.37
2023-01-10T15:54:56.682Z,3.37
2023-01-10T15:57:23.950Z,4.00
2023-01-10T15:59:51.417Z,3.20
2023-01-10T16:02:22.515Z,3.63
2023-01-10T16:04:50.400Z,3.43
2023-01-10T16:07:19.896Z,3.33
2023-01-10T16:09:51.357Z,3.03
2023-01-10T16:12:44.067Z,3.43
2023-01-10T16:15:19.408Z,3.07
2023-01-10T16:17:47.073Z,3.50
2023-01-10T16:20:17.831Z,3.77
2023-01-10T16:22:45.112Z,3.43
2023-01-10T16:25:16.407Z,3.67
2023-01-10T16:27:43.588Z,3.40
2023-01-10T16:30:26.930Z,3.20
2023-01-10T16:32:55.012Z,3.53
2023-01-10T16:35:22.130Z,4.03
2023-01-10T16:37:49.546Z,2.93
2023-01-10T16:40:18.142Z,3.80
2023-01-10T16:43:03.790Z,3.57
2023-01-10T16:45:31.069Z,3.53
2023-01-10T16:47:58.169Z,2.83
2023-01-10T16:50:25.283Z,3.40
2023-01-10T16:52:52.377Z,3.23
2023-01-10T16:55:28.502Z,3.87
2023-01-10T16:57:56.378Z,3.33
2023-01-10T17:00:23.626Z,3.13
2023-01-10T17:02:50.803Z,3.93
2023-01-10T17:05:17.951Z,3.20
2023-01-10T17:07:45.496Z,5.37
2023-01-10T17:10:12.586Z,3.60
2023-01-10T17:12:40.297Z,3.33
2023-01-10T17:15:08.447Z,3.63
2023-01-10T17:17:35.636Z,3.50
2023-01-10T17:20:02.914Z,4.57
2023-01-10T17:22:30.508Z,4.40
2023-01-10T17:24:57.666Z,5.23
2023-01-10T17:27:24.828Z,3.83
2023-01-10T17:29:51.898Z,2.97
2023-01-10T17:32:18.931Z,3.23
2023-01-10T17:34:45.998Z,3.20
2023-01-10T17:37:13.081Z,3.80
2023-01-10T17:39:40.289Z,3.43
2023-01-10T17:42:07.724Z,3.57
2023-01-10T17:44:34.923Z,4.43
2023-01-10T17:47:03.350Z,3.40
2023-01-10T17:49:30.413Z,4.43
2023-01-10T17:51:58.751Z,3.30
2023-01-10T17:54:26.871Z,3.50
2023-01-10T17:56:54.137Z,3.20
2023-01-10T17:59:21.917Z,5.23
2023-01-10T18:01:49.155Z,3.53
2023-01-10T18:04:16.314Z,4.57
2023-01-10T18:06:43.452Z,3.27
2023-01-10T18:09:10.931Z,3.13
2023-01-10T18:11:38.016Z,3.67
2023-01-10T18:14:25.119Z,3.50
2023-01-10T18:16:52.243Z,4.20
2023-01-10T18:19:19.358Z,4.23
2023-01-10T18:21:48.021Z,3.17
2023-01-10T18:24:15.562Z,3.40
2023-01-10T18:26:42.613Z,3.80
2023-01-10T18:29:09.674Z,3.20
2023-01-10T18:31:36.900Z,3.20
2023-01-10T18:36:40.094Z,3.43
2023-01-10T18:39:07.276Z,3.70
2023-01-10T18:41:34.344Z,3.60
2023-01-10T18:44:01.438Z,3.43
2023-01-10T18:46:28.991Z,3.07
2023-01-10T18:48:56.158Z,3.57
2023-01-10T18:51:24.770Z,3.87
2023-01-10T18:53:53.056Z,2.87
2023-01-10T18:56:20.584Z,2.97
2023-01-10T18:58:47.764Z,2.77
2023-01-10T19:01:16.286Z,3.37
2023-01-10T19:03:43.561Z,4.00
2023-01-10T19:06:11.885Z,3.40
2023-01-10T19:08:39.640Z,3.30
2023-01-10T19:11:13.828Z,3.17
2023-01-10T19:13:42.071Z,3.70
2023-01-10T19:16:10.196Z,2.83
2023-01-10T19:18:37.328Z,3.37
2023-01-10T19:23:48.169Z,3.17
2023-01-10T19:26:15.415Z,3.10
2023-01-10T19:28:43.343Z,3.17
2023-01-10T19:31:15.104Z,2.80
2023-01-10T19:33:43.947Z,3.23
2023-01-10T19:36:11.525Z,4.63
2023-01-10T19:38:38.793Z,2.60
2023-01-10T19:41:06.030Z,2.40
2023-01-10T19:43:34.262Z,2.90
2023-01-10T19:46:05.931Z,3.27
2023-01-10T19:48:37.685Z,3.00
2023-01-10T19:51:05.780Z,2.90
2023-01-10T19:53:34.365Z,2.67
2023-01-10T19:56:02.296Z,2.43
2023-01-10T19:58:29.710Z,2.70
2023-01-10T20:00:56.849Z,2.27
2023-01-10T20:03:24.409Z,2.40
2023-01-10T20:05:51.524Z,2.77
2023-01-10T20:08:18.840Z,2.13
2023-01-10T20:10:45.943Z,1.87
2023-01-10T20:13:13.027Z,2.53
2023-01-10T20:15:40.202Z,2.27
2023-01-10T20:18:07.364Z,1.97
2023-01-10T20:20:34.945Z,1.97
2023-01-10T20:23:02.055Z,1.90
2023-01-10T20:25:40.136Z,2.10
2023-01-10T20:28:07.238Z,2.00
2023-01-10T20:30:34.299Z,2.10
2023-01-10T20:33:01.556Z,1.57
2023-01-10T20:35:28.703Z,1.73
2023-01-10T20:37:55.749Z,2.27
2023-01-10T20:40:24.945Z,1.83
2023-01-10T20:42:52.043Z,1.63
2023-01-10T20:45:19.168Z,1.40
2023-01-10T20:47:50.599Z,2.10
2023-01-10T20:50:17.762Z,1.67
2023-01-10T20:52:44.881Z,2.33
2023-01-10T20:55:11.904Z,1.77
2023-01-10T20:57:38.956Z,1.93
2023-01-10T21:00:06.233Z,1.70
2023-01-10T21:02:33.428Z,1.67
2023-01-10T21:05:00.521Z,1.87
2023-01-10T21:07:27.721Z,1.80
2023-01-10T21:09:54.797Z,1.70
2023-01-10T21:12:26.784Z,1.90
2023-01-10T21:14:54.605Z,2.07
2023-01-10T21:17:22.049Z,1.80
2023-01-10T21:19:49.208Z,2.10
2023-01-10T21:22:16.286Z,1.87
2023-01-10T21:24:43.355Z,2.20
2023-01-10T21:27:10.931Z,2.23
2023-01-10T21:29:38.005Z,2.27
2023-01-10T21:32:06.016Z,2.30
2023-01-10T21:34:33.904Z,2.20
2023-01-10T21:37:00.986Z,2.13
2023-01-10T21:39:28.028Z,2.17
2023-01-10T21:42:13.576Z,2.13
2023-01-10T21:44:40.614Z,2.50
2023-01-10T21:47:08.045Z,2.10
2023-01-10T21:49:35.162Z,2.30
2023-01-10T21:52:02.280Z,2.50
2023-01-10T21:54:29.402Z,1.90
2023-01-10T21:56:56.461Z,2.30
2023-01-10T21:59:23.516Z,2.40
2023-01-10T22:01:50.547Z,2.43
2023-01-10T22:04:17.913Z,1.90
2023-01-10T22:06:45.108Z,1.60
2023-01-10T22:09:12.239Z,1.87
2023-01-10T22:11:39.339Z,2.17
2023-01-10T22:14:06.397Z,2.07
2023-01-10T22:16:33.510Z,1.70
2023-01-10T22:19:00.631Z,1.70
2023-01-10T22:21:27.768Z,1.67
2023-01-10T22:23:54.919Z,1.60
2023-01-10T22:26:21.987Z,1.63
2023-01-10T22:28:49.092Z,1.80
2023-01-10T22:31:16.560Z,1.93
2023-01-10T22:33:43.635Z,1.97
2023-01-10T22:36:18.853Z,1.43
2023-01-10T22:38:46.382Z,1.80
2023-01-10T22:41:16.753Z,1.63
2023-01-10T22:43:45.265Z,1.77
2023-01-10T22:46:15.389Z,1.60
2023-01-10T22:48:43.011Z,1.90
2023-01-10T22:51:10.064Z,1.60
2023-01-10T22:53:37.132Z,1.50
2023-01-10T22:56:05.492Z,1.47
2023-01-10T22:58:32.863Z,1.50
2023-01-10T23:00:59.906Z,2.00
2023-01-10T23:03:27.113Z,1.30
2023-01-10T23:05:57.991Z,1.37
2023-01-10T23:08:25.549Z,1.70
2023-01-10T23:10:54.013Z,2.00
2023-01-10T23:13:21.580Z,1.70
2023-01-10T23:15:55.972Z,1.83
2023-01-10T23:18:23.080Z,1.40
2023-01-10T23:20:50.128Z,1.80
2023-01-10T23:23:17.175Z,1.60
2023-01-10T23:25:44.520Z,1.50
2023-01-10T23:28:11.738Z,1.73
2023-01-10T23:30:38.879Z,1.60
2023-01-10T23:33:05.968Z,1.53
2023-01-10T23:35:33.057Z,1.30
2023-01-10T23:38:00.131Z,1.40
2023-01-10T23:40:27.200Z,1.70
2023-01-10T23:42:54.272Z,1.67
2023-01-10T23:45:21.335Z,1.37
2023-01-10T23:47:48.387Z,1.60
2023-01-10T23:50:15.698Z,1.50
2023-01-10T23:52:42.793Z,1.53
2023-01-10T23:55:09.997Z,1.50
2023-01-10T23:57:37.049Z,1.30
